createdAt,value
2023-08-29T00:00:05.974Z,10.65
2023-08-29T00:02:44.294Z,7.38
2023-08-29T00:05:11.969Z,9.10
2023-08-29T00:07:40.090Z,6.18
2023-08-29T00:10:07.908Z,5.55
2023-08-29T00:12:35.253Z,6.82
2023-08-29T00:15:05.155Z,5.13
2023-08-29T00:17:32.883Z,5.82
2023-08-29T00:20:00.037Z,5.13
2023-08-29T00:22:27.233Z,5.22
2023-08-29T00:24:54.243Z,6.15
2023-08-29T00:27:21.354Z,6.57
2023-08-29T00:29:48.473Z,5.28
2023-08-29T00:32:15.671Z,5.75
2023-08-29T00:34:43.390Z,6.25
2023-08-29T00:37:11.857Z,9.50
2023-08-29T00:39:38.917Z,5.60
2023-08-29T00:42:06.039Z,6.82
2023-08-29T00:44:35.069Z,7.88
2023-08-29T00:47:07.157Z,8.80
2023-08-29T00:49:36.524Z,6.97
2023-08-29T00:52:04.769Z,5.32
2023-08-29T00:54:32.058Z,5.80
2023-08-29T00:56:59.885Z,8.65
2023-08-29T00:59:27.090Z,8.65
2023-08-29T01:01:54.618Z,5.82
2023-08-29T01:04:21.675Z,5.97
2023-08-29T01:06:49.009Z,8.05
2023-08-29T01:09:16.245Z,6.13
2023-08-29T01:12:00.031Z,11.27
2023-08-29T01:14:48.313Z,23.05
2023-08-29T01:17:23.957Z,11.70
2023-08-29T01:19:53.537Z,12.05
2023-08-29T01:22:35.737Z,7.88
2023-08-29T01:25:16.067Z,6.78
2023-08-29T01:27:43.286Z,8.13
2023-08-29T01:30:11.135Z,9.95
2023-08-29T01:32:39.256Z,5.68
2023-08-29T01:35:07.987Z,6.47
2023-08-29T01:37:35.068Z,6.63
2023-08-29T01:40:02.228Z,5.63
2023-08-29T01:42:30.015Z,8.65
2023-08-29T01:44:57.136Z,6.65
2023-08-29T01:47:24.474Z,7.07
2023-08-29T01:49:52.861Z,7.40
2023-08-29T01:52:19.946Z,12.85
2023-08-29T01:54:47.130Z,5.35
2023-08-29T01:57:15.785Z,8.50
2023-08-29T01:59:45.232Z,8.18
2023-08-29T02:02:14.416Z,7.35
2023-08-29T02:04:42.823Z,9.68
2023-08-29T02:07:12.244Z,6.93
2023-08-29T02:09:39.558Z,5.78
2023-08-29T02:12:06.840Z,7.78
2023-08-29T02:14:34.099Z,6.75
2023-08-29T02:17:01.341Z,6.18
2023-08-29T02:19:29.419Z,6.78
2023-08-29T02:21:56.489Z,4.25
2023-08-29T02:24:24.333Z,7.60
2023-08-29T02:26:51.761Z,9.93
2023-08-29T02:29:18.832Z,11.77
2023-08-29T02:31:46.692Z,6.32
2023-08-29T02:34:13.847Z,7.28
2023-08-29T02:36:42.013Z,7.43
2023-08-29T02:39:09.031Z,7.53
2023-08-29T02:41:38.348Z,9.27
2023-08-29T02:44:05.701Z,7.22
2023-08-29T02:46:32.886Z,6.15
2023-08-29T02:49:00.220Z,5.43
2023-08-29T02:51:27.274Z,6.63
2023-08-29T02:53:54.246Z,6.00
2023-08-29T02:56:21.392Z,6.97
2023-08-29T02:58:48.705Z,9.00
2023-08-29T03:01:16.081Z,11.55
2023-08-29T03:03:43.492Z,7.55
2023-08-29T03:06:10.668Z,7.15
2023-08-29T03:08:38.402Z,5.28
2023-08-29T03:11:05.713Z,5.70
2023-08-29T03:13:33.573Z,5.70
2023-08-29T03:16:00.908Z,5.88
2023-08-29T03:18:28.888Z,5.28
2023-08-29T03:20:57.394Z,7.07
2023-08-29T03:23:25.961Z,8.38
2023-08-29T03:26:07.031Z,6.68
2023-08-29T03:28:36.465Z,5.60
2023-08-29T03:31:14.651Z,7.68
2023-08-29T03:33:42.519Z,5.95
2023-08-29T03:36:09.977Z,8.10
2023-08-29T03:38:38.788Z,5.40
2023-08-29T03:41:07.340Z,10.77
2023-08-29T03:43:36.050Z,6.68
2023-08-29T03:46:08.349Z,5.78
2023-08-29T03:48:37.186Z,6.82
2023-08-29T03:51:08.161Z,6.30
2023-08-29T03:53:39.022Z,5.85
2023-08-29T03:56:09.940Z,5.20
2023-08-29T03:58:37.076Z,7.07
2023-08-29T04:01:07.435Z,9.48
2023-08-29T04:03:35.100Z,8.20
2023-08-29T04:06:04.730Z,7.15
2023-08-29T04:08:32.110Z,5.93
2023-08-29T04:10:59.200Z,6.40
2023-08-29T04:13:26.295Z,24.00
2023-08-29T04:15:55.549Z,12.98
2023-08-29T04:18:24.127Z,8.07
2023-08-29T04:20:51.115Z,7.03
2023-08-29T04:23:18.298Z,8.55
2023-08-29T04:25:45.948Z,6.60
2023-08-29T04:28:15.618Z,5.78
2023-08-29T04:30:42.612Z,9.00
2023-08-29T04:33:09.618Z,5.65
2023-08-29T04:35:36.711Z,6.10
2023-08-29T04:38:04.366Z,5.43
2023-08-29T04:40:31.783Z,5.15
2023-08-29T04:42:59.427Z,10.15
2023-08-29T04:45:26.388Z,5.88
2023-08-29T04:47:53.538Z,4.57
2023-08-29T04:50:21.714Z,7.22
2023-08-29T04:52:54.903Z,6.95
2023-08-29T04:55:22.601Z,7.43
2023-08-29T04:57:50.492Z,7.85
2023-08-29T05:00:17.816Z,5.72
2023-08-29T05:02:44.881Z,6.20
2023-08-29T05:05:12.381Z,5.25
2023-08-29T05:07:39.464Z,5.80
2023-08-29T05:10:08.025Z,7.40
2023-08-29T05:12:35.085Z,4.05
2023-08-29T05:15:02.121Z,7.38
2023-08-29T05:17:33.245Z,10.40
2023-08-29T05:20:00.474Z,5.53
2023-08-29T05:22:27.453Z,4.30
2023-08-29T05:24:54.452Z,4.57
2023-08-29T05:27:21.903Z,8.00
2023-08-29T05:29:48.887Z,4.80
2023-08-29T05:32:15.984Z,3.90
2023-08-29T05:34:42.994Z,5.65
2023-08-29T05:37:09.987Z,5.88
2023-08-29T05:39:36.904Z,7.57
2023-08-29T05:42:04.138Z,8.30
2023-08-29T05:44:31.174Z,8.05
2023-08-29T05:46:58.128Z,7.05
2023-08-29T05:49:25.154Z,5.68
2023-08-29T05:51:53.069Z,5.38
2023-08-29T05:54:20.148Z,4.97
2023-08-29T05:56:47.213Z,5.30
2023-08-29T05:59:14.120Z,5.28
2023-08-29T06:01:41.143Z,4.05
2023-08-29T06:04:09.411Z,8.90
2023-08-29T06:06:37.038Z,4.22
2023-08-29T06:09:04.398Z,7.47
2023-08-29T06:11:31.433Z,6.13
2023-08-29T06:13:58.410Z,9.00
2023-08-29T06:16:25.621Z,5.78
2023-08-29T06:18:52.687Z,7.50
2023-08-29T06:21:20.615Z,5.30
2023-08-29T06:23:47.764Z,8.00
2023-08-29T06:26:14.805Z,7.20
2023-08-29T06:28:42.053Z,7.32
2023-08-29T06:31:09.778Z,6.90
2023-08-29T06:33:38.391Z,7.13
2023-08-29T06:36:06.053Z,9.10
2023-08-29T06:38:35.680Z,8.60
2023-08-29T06:41:04.365Z,8.13
2023-08-29T06:43:32.009Z,7.38
2023-08-29T06:45:59.061Z,7.22
2023-08-29T06:48:26.148Z,4.47
2023-08-29T06:50:53.274Z,4.35
2023-08-29T06:53:20.392Z,4.32
2023-08-29T06:55:48.620Z,6.72
2023-08-29T06:58:15.625Z,7.68
2023-08-29T07:00:42.618Z,4.70
2023-08-29T07:03:09.832Z,6.72
2023-08-29T07:05:36.929Z,11.68
2023-08-29T07:08:05.340Z,6.57
2023-08-29T07:10:32.641Z,4.57
2023-08-29T07:12:59.886Z,5.07
2023-08-29T07:15:27.119Z,12.07
2023-08-29T07:17:55.112Z,7.70
2023-08-29T07:20:22.210Z,6.57
2023-08-29T07:22:49.503Z,4.65
2023-08-29T07:25:19.261Z,7.30
2023-08-29T07:27:47.045Z,6.43
2023-08-29T07:30:16.613Z,5.68
2023-08-29T07:32:44.842Z,9.02
2023-08-29T07:35:12.070Z,5.15
2023-08-29T07:37:39.084Z,4.90
2023-08-29T07:40:06.475Z,5.60
2023-08-29T07:42:33.475Z,8.45
2023-08-29T07:45:00.965Z,6.47
2023-08-29T07:47:27.965Z,7.00
2023-08-29T07:49:54.973Z,5.53
2023-08-29T07:52:22.037Z,7.10
2023-08-29T07:54:49.062Z,3.72
2023-08-29T07:57:15.985Z,11.27
2023-08-29T07:59:43.142Z,6.28
2023-08-29T08:02:10.271Z,5.47
2023-08-29T08:04:38.072Z,5.97
2023-08-29T08:07:05.273Z,4.95
2023-08-29T08:09:32.795Z,9.75
2023-08-29T08:11:59.879Z,6.18
2023-08-29T08:14:26.924Z,2.97
2023-08-29T08:16:53.978Z,7.05
2023-08-29T08:19:21.140Z,4.38
2023-08-29T08:21:50.851Z,4.32
2023-08-29T08:24:18.429Z,5.63
2023-08-29T08:26:45.425Z,9.35
2023-08-29T08:29:12.442Z,4.78
2023-08-29T08:31:39.561Z,5.72
2023-08-29T08:34:06.631Z,6.60
2023-08-29T08:36:33.931Z,4.20
2023-08-29T08:39:00.977Z,4.65
2023-08-29T08:41:28.328Z,7.18
2023-08-29T08:43:58.320Z,6.28
2023-08-29T08:46:25.896Z,8.68
2023-08-29T08:48:54.842Z,4.68
2023-08-29T08:51:23.859Z,8.52
2023-08-29T08:53:51.582Z,7.50
2023-08-29T08:56:18.859Z,5.82
2023-08-29T08:58:46.385Z,4.60
2023-08-29T09:01:14.400Z,3.90
2023-08-29T09:03:42.912Z,5.60
2023-08-29T09:06:14.018Z,4.53
2023-08-29T09:08:41.408Z,5.43
2023-08-29T09:11:08.517Z,4.57
2023-08-29T09:13:35.800Z,5.57
2023-08-29T09:16:03.192Z,5.15
2023-08-29T09:18:33.000Z,7.15
2023-08-29T09:21:06.000Z,8.48
2023-08-29T09:23:39.167Z,4.68
2023-08-29T09:26:06.303Z,8.15
2023-08-29T09:28:33.349Z,6.22
2023-08-29T09:31:08.345Z,6.28
2023-08-29T09:33:36.570Z,5.10
2023-08-29T09:36:05.958Z,4.85
2023-08-29T09:38:36.424Z,6.68
2023-08-29T09:41:03.734Z,5.57
2023-08-29T09:43:31.608Z,7.20
2023-08-29T09:45:59.338Z,4.88
2023-08-29T09:48:26.516Z,9.55
2023-08-29T09:50:53.581Z,7.00
2023-08-29T09:53:21.883Z,9.75
2023-08-29T09:56:11.266Z,6.72
2023-08-29T09:58:42.758Z,4.13
2023-08-29T10:01:11.956Z,8.00
2023-08-29T10:03:41.692Z,6.43
2023-08-29T10:06:11.698Z,4.32
2023-08-29T10:09:00.349Z,4.30
2023-08-29T10:11:32.439Z,5.18
2023-08-29T10:14:05.658Z,4.38
2023-08-29T10:16:33.501Z,6.43
2023-08-29T10:19:00.607Z,5.22
2023-08-29T10:21:29.379Z,11.52
2023-08-29T10:23:57.074Z,8.70
2023-08-29T10:26:26.970Z,5.20
2023-08-29T10:31:22.039Z,7.60
2023-08-29T10:33:49.329Z,6.50
2023-08-29T10:36:17.887Z,4.75
2023-08-29T10:38:48.245Z,4.65
2023-08-29T10:41:15.884Z,5.53
2023-08-29T10:43:43.718Z,4.88
2023-08-29T10:46:15.581Z,8.15
2023-08-29T10:48:45.484Z,6.00
2023-08-29T10:51:13.289Z,4.22
2023-08-29T10:53:44.408Z,7.30
2023-08-29T10:56:11.395Z,5.22
2023-08-29T10:58:40.665Z,6.63
2023-08-29T11:01:28.437Z,6.75
2023-08-29T11:04:05.285Z,6.15
2023-08-29T11:06:52.217Z,4.90
2023-08-29T11:09:24.419Z,8.23
2023-08-29T11:12:14.114Z,6.65
2023-08-29T11:14:57.836Z,6.90
2023-08-29T11:17:26.599Z,6.78
2023-08-29T11:19:55.691Z,6.35
2023-08-29T11:22:26.998Z,4.40
2023-08-29T11:24:57.898Z,5.93
2023-08-29T11:27:30.477Z,6.28
2023-08-29T11:30:19.538Z,4.32
2023-08-29T11:32:51.931Z,7.85
2023-08-29T11:35:19.541Z,8.40
2023-08-29T11:37:46.524Z,6.95
2023-08-29T11:40:13.786Z,3.60
2023-08-29T11:43:19.240Z,6.78
2023-08-29T11:45:48.283Z,4.38
2023-08-29T11:48:25.241Z,5.68
2023-08-29T11:50:54.537Z,5.70
2023-08-29T11:53:29.245Z,6.50
2023-08-29T11:55:57.209Z,6.85
2023-08-29T11:58:34.514Z,4.47
2023-08-29T12:01:02.897Z,6.63
2023-08-29T12:03:29.974Z,6.15
2023-08-29T12:05:59.724Z,7.03
2023-08-29T12:08:44.063Z,5.55
2023-08-29T12:11:18.214Z,8.48
2023-08-29T12:14:02.048Z,7.25
2023-08-29T12:16:29.920Z,4.18
2023-08-29T12:19:13.493Z,9.02
2023-08-29T12:21:40.762Z,7.47
2023-08-29T12:24:11.818Z,5.78
2023-08-29T12:26:39.292Z,10.82
2023-08-29T12:29:06.239Z,6.88
2023-08-29T12:31:33.463Z,11.55
2023-08-29T12:34:00.506Z,8.30
2023-08-29T12:36:27.471Z,9.65
2023-08-29T12:38:54.449Z,6.35
2023-08-29T12:41:22.505Z,7.28
2023-08-29T12:43:50.338Z,6.88
2023-08-29T12:46:17.392Z,6.60
2023-08-29T12:48:46.474Z,8.60
2023-08-29T12:51:13.425Z,7.65
2023-08-29T12:53:41.301Z,6.38
2023-08-29T12:56:11.571Z,8.35
2023-08-29T12:58:39.171Z,8.10
2023-08-29T13:01:06.519Z,8.07
2023-08-29T13:03:34.088Z,9.07
2023-08-29T13:06:01.186Z,14.07
2023-08-29T13:08:28.414Z,5.65
2023-08-29T13:10:55.414Z,11.15
2023-08-29T13:13:22.532Z,11.43
2023-08-29T13:15:51.474Z,6.10
2023-08-29T13:18:19.806Z,8.60
2023-08-29T13:20:46.933Z,7.78
2023-08-29T13:23:13.998Z,5.53
2023-08-29T13:25:41.201Z,5.28
2023-08-29T13:28:08.611Z,7.18
2023-08-29T13:30:36.329Z,11.10
2023-08-29T13:33:04.789Z,6.38
2023-08-29T13:35:31.998Z,6.97
2023-08-29T13:37:59.032Z,7.80
2023-08-29T13:40:26.067Z,9.32
2023-08-29T13:42:53.619Z,7.80
2023-08-29T13:45:21.032Z,7.40
2023-08-29T13:47:48.651Z,8.35
2023-08-29T13:50:16.216Z,7.32
2023-08-29T13:52:43.337Z,4.72
2023-08-29T13:55:10.580Z,8.73
2023-08-29T13:57:37.826Z,6.95
2023-08-29T14:00:06.590Z,7.07
2023-08-29T14:02:40.792Z,7.57
2023-08-29T14:05:09.584Z,5.30
2023-08-29T14:07:37.583Z,8.50
2023-08-29T14:10:05.068Z,6.55
2023-08-29T14:12:32.258Z,6.13
2023-08-29T14:15:00.218Z,10.45
2023-08-29T14:17:28.119Z,9.00
2023-08-29T14:19:58.022Z,5.47
2023-08-29T14:22:27.317Z,6.93
2023-08-29T14:24:54.383Z,11.15
2023-08-29T14:27:21.434Z,14.02
2023-08-29T14:29:48.462Z,7.65
2023-08-29T14:32:15.426Z,7.10
2023-08-29T14:34:42.312Z,6.90
2023-08-29T14:37:11.026Z,9.15
2023-08-29T14:39:38.383Z,9.20
2023-08-29T14:42:05.671Z,12.48
2023-08-29T14:44:33.192Z,9.80
2023-08-29T14:47:00.363Z,14.32
2023-08-29T14:49:27.434Z,16.77
2023-08-29T14:51:55.409Z,7.38
2023-08-29T14:54:22.447Z,11.75
2023-08-29T14:56:49.450Z,9.43
2023-08-29T14:59:16.471Z,5.45
2023-08-29T15:01:43.567Z,7.25
2023-08-29T15:04:10.576Z,9.10
2023-08-29T15:06:37.670Z,8.48
2023-08-29T15:09:08.671Z,9.45
2023-08-29T15:11:36.106Z,8.85
2023-08-29T15:14:05.160Z,11.18
2023-08-29T15:16:32.271Z,15.15
2023-08-29T15:18:59.479Z,12.82
2023-08-29T15:21:26.573Z,16.70
2023-08-29T15:23:53.792Z,12.23
2023-08-29T15:26:20.715Z,13.25
2023-08-29T15:28:47.832Z,16.02
2023-08-29T15:31:14.984Z,14.77
2023-08-29T15:33:43.165Z,13.95
2023-08-29T15:36:11.780Z,14.43
2023-08-29T15:38:40.667Z,19.48
2023-08-29T15:41:08.102Z,23.70
2023-08-29T15:43:35.165Z,14.65
2023-08-29T15:46:02.263Z,18.48
2023-08-29T15:48:29.499Z,25.73
2023-08-29T15:50:56.540Z,15.57
2023-08-29T15:53:23.574Z,17.92
2023-08-29T15:55:50.752Z,14.45
2023-08-29T15:58:19.977Z,13.52
2023-08-29T16:00:47.097Z,14.65
2023-08-29T16:03:14.213Z,11.90
2023-08-29T16:05:41.252Z,24.08
2023-08-29T16:08:09.962Z,21.10
2023-08-29T16:10:37.192Z,22.92
2023-08-29T16:13:04.381Z,13.38
2023-08-29T16:15:31.366Z,14.15
2023-08-29T16:17:58.381Z,15.65
2023-08-29T16:20:25.448Z,12.57
2023-08-29T16:22:52.967Z,16.90
2023-08-29T16:25:20.036Z,17.15
2023-08-29T16:27:47.075Z,10.60
2023-08-29T16:30:15.358Z,18.00
2023-08-29T16:32:42.335Z,17.40
2023-08-29T16:35:10.094Z,11.45
2023-08-29T16:37:38.640Z,14.02
2023-08-29T16:40:09.193Z,15.98
2023-08-29T16:42:36.829Z,17.20
2023-08-29T16:45:05.491Z,16.95
2023-08-29T16:47:32.862Z,20.35
2023-08-29T16:49:59.905Z,25.70
2023-08-29T16:52:28.224Z,28.25
2023-08-29T16:54:55.335Z,20.85
2023-08-29T16:57:22.561Z,25.98
2023-08-29T17:00:11.518Z,24.85
2023-08-29T17:02:38.754Z,14.90
2023-08-29T17:05:06.273Z,15.52
2023-08-29T17:07:33.466Z,16.98
2023-08-29T17:10:00.976Z,21.92
2023-08-29T17:12:31.689Z,20.17
2023-08-29T17:14:59.018Z,19.92
2023-08-29T17:17:26.233Z,29.17
2023-08-29T17:19:53.568Z,19.20
2023-08-29T17:22:20.654Z,22.92
2023-08-29T17:24:47.964Z,20.25
2023-08-29T17:27:15.102Z,22.15
2023-08-29T17:29:42.335Z,21.50
2023-08-29T17:32:09.512Z,24.92
2023-08-29T17:34:38.021Z,26.00
2023-08-29T17:37:05.250Z,26.95
2023-08-29T17:39:32.341Z,33.00
2023-08-29T17:41:59.435Z,25.80
2023-08-29T17:44:26.628Z,21.55
2023-08-29T17:46:53.635Z,23.88
2023-08-29T17:49:20.646Z,26.08
2023-08-29T17:51:49.116Z,23.92
2023-08-29T17:54:16.277Z,22.70
2023-08-29T17:56:43.271Z,22.23
2023-08-29T17:59:10.236Z,22.23
2023-08-29T18:01:37.388Z,30.05
2023-08-29T18:04:08.521Z,23.95
2023-08-29T18:06:36.402Z,24.60
2023-08-29T18:09:03.764Z,42.78
2023-08-29T18:11:31.189Z,36.85
2023-08-29T18:13:58.484Z,30.90
2023-08-29T18:16:25.655Z,31.27
2023-08-29T18:18:53.029Z,25.48
2023-08-29T18:21:20.090Z,34.22
2023-08-29T18:23:47.130Z,31.15
2023-08-29T18:26:14.486Z,28.00
2023-08-29T18:28:41.895Z,25.85
2023-08-29T18:31:10.782Z,29.13
2023-08-29T18:33:37.953Z,26.67
2023-08-29T18:36:05.487Z,25.13
2023-08-29T18:38:32.855Z,29.33
2023-08-29T18:41:00.505Z,29.83
2023-08-29T18:43:28.675Z,32.33
2023-08-29T18:45:57.057Z,30.85
2023-08-29T18:48:25.287Z,31.35
2023-08-29T18:50:53.382Z,48.88
2023-08-29T18:53:23.701Z,56.97
2023-08-29T18:55:52.000Z,28.05
2023-08-29T18:58:19.805Z,33.92
2023-08-29T19:00:48.172Z,22.85
2023-08-29T19:03:16.509Z,25.60
2023-08-29T19:05:44.518Z,32.75
2023-08-29T19:08:12.649Z,28.05
2023-08-29T19:10:40.850Z,26.48
2023-08-29T19:13:08.554Z,27.73
2023-08-29T19:15:36.054Z,32.42
2023-08-29T19:18:04.674Z,37.65
2023-08-29T19:20:35.389Z,30.05
2023-08-29T19:23:02.798Z,35.20
2023-08-29T19:25:29.942Z,30.75
2023-08-29T19:27:57.559Z,25.42
2023-08-29T19:30:24.866Z,28.45
2023-08-29T19:32:52.079Z,27.58
2023-08-29T19:35:19.561Z,31.77
2023-08-29T19:37:47.279Z,28.70
2023-08-29T19:40:15.465Z,31.70
2023-08-29T19:42:42.503Z,34.92
2023-08-29T19:45:10.033Z,36.65
2023-08-29T19:47:37.188Z,30.00
2023-08-29T19:50:04.666Z,33.45
2023-08-29T19:52:32.297Z,29.23
2023-08-29T19:55:00.666Z,29.23
2023-08-29T19:57:27.942Z,34.50
2023-08-29T19:59:55.073Z,26.70
2023-08-29T20:02:22.153Z,33.38
2023-08-29T20:04:49.153Z,33.63
2023-08-29T20:07:16.248Z,36.78
2023-08-29T20:09:43.273Z,32.05
2023-08-29T20:12:10.262Z,26.77
2023-08-29T20:14:37.350Z,30.55
2023-08-29T20:17:06.402Z,29.52
2023-08-29T20:19:34.430Z,33.88
2023-08-29T20:22:01.487Z,34.42
2023-08-29T20:24:30.652Z,31.25
2023-08-29T20:26:57.638Z,36.70
2023-08-29T20:29:24.670Z,33.78
2023-08-29T20:31:51.720Z,32.03
2023-08-29T20:34:18.784Z,28.63
2023-08-29T20:36:49.107Z,34.33
2023-08-29T20:39:16.669Z,29.27
2023-08-29T20:41:43.745Z,29.10
2023-08-29T20:44:10.853Z,33.38
2023-08-29T20:46:38.170Z,34.50
2023-08-29T20:49:05.525Z,36.17
2023-08-29T20:51:34.629Z,31.55
2023-08-29T20:54:01.712Z,35.42
2023-08-29T20:56:28.828Z,35.03
2023-08-29T20:58:55.965Z,32.92
2023-08-29T21:01:22.952Z,25.20
2023-08-29T21:03:50.045Z,29.67
2023-08-29T21:06:17.400Z,38.50
2023-08-29T21:08:44.463Z,32.90
2023-08-29T21:11:11.554Z,30.73
2023-08-29T21:13:38.645Z,32.75
2023-08-29T21:16:05.736Z,27.85
2023-08-29T21:18:33.516Z,32.45
2023-08-29T21:21:02.552Z,27.98
2023-08-29T21:23:30.224Z,29.10
2023-08-29T21:25:57.335Z,29.00
2023-08-29T21:28:28.206Z,31.27
2023-08-29T21:30:56.020Z,36.22
2023-08-29T21:33:24.231Z,32.15
2023-08-29T21:35:52.273Z,34.03
2023-08-29T21:38:20.022Z,28.83
2023-08-29T21:40:47.495Z,30.70
2023-08-29T21:43:23.755Z,33.65
2023-08-29T21:45:55.888Z,31.70
2023-08-29T21:48:25.854Z,30.40
2023-08-29T21:53:20.610Z,32.90
2023-08-29T21:55:47.776Z,35.90
2023-08-29T21:58:20.172Z,32.95
2023-08-29T22:00:52.122Z,33.00
2023-08-29T22:03:25.627Z,28.48
2023-08-29T22:05:53.600Z,38.72
2023-08-29T22:08:22.158Z,28.38
2023-08-29T22:10:49.661Z,27.80
2023-08-29T22:13:16.956Z,23.40
2023-08-29T22:15:44.156Z,29.92
2023-08-29T22:18:12.112Z,32.88
2023-08-29T22:20:39.822Z,27.60
2023-08-29T22:23:06.901Z,29.33
2023-08-29T22:25:33.987Z,30.65
2023-08-29T22:28:01.021Z,32.08
2023-08-29T22:30:28.388Z,38.97
2023-08-29T22:32:55.862Z,36.22
2023-08-29T22:35:23.078Z,33.53
2023-08-29T22:37:50.189Z,28.35
2023-08-29T22:40:18.058Z,29.85
2023-08-29T22:42:47.739Z,37.15
2023-08-29T22:45:15.284Z,38.13
2023-08-29T22:47:44.388Z,34.22
2023-08-29T22:50:11.547Z,33.10
2023-08-29T22:52:42.389Z,31.75
2023-08-29T22:55:10.427Z,38.53
2023-08-29T22:57:37.731Z,29.95
2023-08-29T23:00:07.211Z,41.30
2023-08-29T23:02:34.369Z,34.63
2023-08-29T23:05:05.806Z,34.67
2023-08-29T23:07:33.713Z,33.35
2023-08-29T23:10:00.790Z,25.90
2023-08-29T23:12:28.690Z,33.60
2023-08-29T23:14:55.888Z,40.55
2023-08-29T23:17:23.064Z,36.35
2023-08-29T23:20:09.301Z,36.25
2023-08-29T23:22:36.780Z,34.67
2023-08-29T23:25:05.826Z,37.08
2023-08-29T23:27:33.226Z,33.20
2023-08-29T23:30:00.272Z,37.80
2023-08-29T23:32:27.704Z,33.65
2023-08-29T23:34:59.200Z,32.38
2023-08-29T23:37:26.373Z,31.25
2023-08-29T23:39:53.500Z,25.92
2023-08-29T23:42:20.589Z,28.25
2023-08-29T23:44:49.459Z,29.50
2023-08-29T23:47:16.791Z,26.73
2023-08-29T23:49:43.935Z,28.58
2023-08-29T23:52:11.050Z,24.70
2023-08-29T23:54:37.955Z,26.95
2023-08-29T23:57:05.899Z,27.17
2023-08-29T23:59:32.979Z,28.77
